Time;durP1;ratioP1;P1;durP2;ratioP2;P2;SDS_P1;SDS_P2;PMS_P1;PMS_P2;Temp;Humidity;BMP_temperature;BMP_pressure;BME280_temperature;BME280_humidity;BME280_pressure;Samples;Min_cycle;Max_cycle;Signal;HPM_P1;HPM_P2
2022/01/11 00:01:16;;;;;;;96.93;38.08;;;;;;;;;;5022764;28;20064;-50
2022/01/11 00:03:42;;;;;;;89.15;38.08;;;;;;;;;;5032375;28;20100;-49
2022/01/11 00:08:45;;;;;;;97.80;38.45;;;;;;;;;;5024521;28;20107;-51
2022/01/11 00:11:11;;;;;;;107.63;40.65;;;;;;;;;;5030784;28;20048;-50
2022/01/11 00:13:39;;;;;;;103.68;39.65;;;;;;;;;;5031367;28;20361;-52
2022/01/11 00:16:06;;;;;;;93.60;39.95;;;;;;;;;;5032631;28;20026;-55
2022/01/11 00:18:32;;;;;;;100.78;38.30;;;;;;;;;;5031305;28;20171;-50
2022/01/11 00:20:58;;;;;;;92.60;36.95;;;;;;;;;;5039881;28;20025;-51
2022/01/11 00:26:15;;;;;;;105.03;39.75;;;;;;;;;;5033214;28;20030;-50
2022/01/11 00:28:41;;;;;;;100.47;38.88;;;;;;;;;;5027348;28;20642;-53
2022/01/11 00:31:26;;;;;;;97.15;38.92;;;;;;;;;;5032975;28;20028;-49
2022/01/11 00:33:53;;;;;;;99.03;38.78;;;;;;;;;;5031754;28;20120;-54
2022/01/11 00:36:19;;;;;;;108.25;43.17;;;;;;;;;;5029215;28;20512;-50
2022/01/11 00:38:45;;;;;;;105.25;40.78;;;;;;;;;;5031661;28;20037;-50
2022/01/11 00:41:13;;;;;;;96.47;39.28;;;;;;;;;;5025810;28;20026;-53
2022/01/11 00:43:41;;;;;;;110.43;41.40;;;;;;;;;;5024133;28;20037;-51
2022/01/11 00:46:07;;;;;;;120.55;47.40;;;;;;;;;;5023299;28;20022;-51
2022/01/11 00:48:35;;;;;;;103.55;41.97;;;;;;;;;;5026872;28;20338;-51
2022/01/11 00:51:01;;;;;;;96.82;41.10;;;;;;;;;;5022536;28;20029;-50
2022/01/11 00:53:27;;;;;;;106.97;42.58;;;;;;;;;;5026720;28;20034;-53
2022/01/11 00:55:53;;;;;;;112.00;44.33;;;;;;;;;;5028292;28;20048;-50
2022/01/11 00:58:20;;;;;;;118.97;44.63;;;;;;;;;;5031320;28;20029;-56
2022/01/11 01:00:46;;;;;;;124.32;44.70;;;;;;;;;;5028585;28;20044;-54
2022/01/11 01:03:12;;;;;;;108.80;44.45;;;;;;;;;;5029670;28;20056;-51
2022/01/11 01:05:39;;;;;;;124.43;44.45;;;;;;;;;;5029421;28;20028;-51
2022/01/11 01:08:05;;;;;;;115.88;44.45;;;;;;;;;;5028236;28;20521;-52
2022/01/11 01:10:40;;;;;;;108.82;43.35;;;;;;;;;;5019373;28;20024;-52
2022/01/11 01:13:10;;;;;;;108.10;43.78;;;;;;;;;;5030340;28;20117;-52
2022/01/11 01:15:37;;;;;;;108.13;43.40;;;;;;;;;;5027566;28;20030;-54
2022/01/11 01:18:03;;;;;;;121.10;46.55;;;;;;;;;;5029245;28;20028;-51
2022/01/11 01:20:29;;;;;;;120.38;46.85;;;;;;;;;;5031789;28;20017;-52
2022/01/11 01:22:55;;;;;;;113.05;45.70;;;;;;;;;;5019355;28;20036;-56
2022/01/11 01:25:23;;;;;;;119.00;45.90;;;;;;;;;;5023625;28;20021;-50
2022/01/11 01:27:49;;;;;;;119.82;46.58;;;;;;;;;;5029055;28;20481;-54
2022/01/11 01:30:16;;;;;;;116.00;45.60;;;;;;;;;;5026441;28;20112;-50
2022/01/11 01:32:42;;;;;;;119.45;46.40;;;;;;;;;;5029580;28;20056;-50
2022/01/11 01:35:09;;;;;;;120.70;44.58;;;;;;;;;;5020181;28;20089;-50
2022/01/11 01:37:35;;;;;;;119.32;43.30;;;;;;;;;;5025160;28;20053;-54
2022/01/11 01:40:01;;;;;;;127.47;46.05;;;;;;;;;;5027615;28;20033;-55
2022/01/11 01:42:30;;;;;;;119.07;43.65;;;;;;;;;;5028994;28;20373;-53
2022/01/11 01:44:56;;;;;;;118.25;46.42;;;;;;;;;;5017763;28;20026;-54
2022/01/11 01:47:22;;;;;;;113.15;43.45;;;;;;;;;;5024382;28;20481;-53
2022/01/11 01:49:48;;;;;;;128.32;45.70;;;;;;;;;;5024017;28;20109;-52
2022/01/11 01:52:15;;;;;;;113.13;42.58;;;;;;;;;;5025999;28;20124;-50
2022/01/11 01:54:41;;;;;;;119.72;45.13;;;;;;;;;;5027959;28;20030;-50
2022/01/11 01:57:08;;;;;;;115.05;43.55;;;;;;;;;;5032703;28;20070;-54
2022/01/11 01:59:34;;;;;;;116.13;43.90;;;;;;;;;;5035207;28;20415;-51
2022/01/11 02:02:00;;;;;;;120.28;46.38;;;;;;;;;;5033852;28;20103;-53
2022/01/11 02:04:26;;;;;;;129.38;44.85;;;;;;;;;;5033065;28;20061;-54
2022/01/11 02:06:52;;;;;;;117.43;46.00;;;;;;;;;;5031394;28;20108;-50
2022/01/11 02:09:18;;;;;;;127.38;45.10;;;;;;;;;;5033200;28;20025;-50
2022/01/11 02:11:45;;;;;;;121.60;47.38;;;;;;;;;;5027041;28;20028;-56
2022/01/11 02:14:11;;;;;;;114.25;44.28;;;;;;;;;;5028102;28;20030;-52
2022/01/11 02:16:38;;;;;;;116.25;43.85;;;;;;;;;;5032072;28;20492;-56
2022/01/11 02:19:04;;;;;;;121.75;42.95;;;;;;;;;;5033754;28;20500;-53
2022/01/11 02:21:30;;;;;;;124.07;43.67;;;;;;;;;;5044923;28;20055;-52
2022/01/11 02:23:58;;;;;;;123.63;42.95;;;;;;;;;;5031133;28;20017;-53
2022/01/11 02:26:24;;;;;;;123.22;44.33;;;;;;;;;;5033267;28;20025;-54
2022/01/11 02:28:51;;;;;;;122.38;45.65;;;;;;;;;;5032852;28;20049;-55
2022/01/11 02:31:17;;;;;;;129.27;45.10;;;;;;;;;;5031503;28;20465;-56
2022/01/11 02:33:46;;;;;;;125.57;46.90;;;;;;;;;;5027392;28;20030;-51
2022/01/11 02:36:18;;;;;;;136.23;48.38;;;;;;;;;;5020179;28;20366;-52
2022/01/11 02:38:44;;;;;;;125.13;46.22;;;;;;;;;;5030144;28;20112;-51
2022/01/11 02:41:10;;;;;;;129.68;45.90;;;;;;;;;;5027193;28;20056;-51
2022/01/11 02:43:40;;;;;;;127.72;45.00;;;;;;;;;;5030111;28;20478;-50
2022/01/11 02:46:06;;;;;;;134.70;45.78;;;;;;;;;;5031916;28;20540;-52
2022/01/11 02:48:32;;;;;;;124.10;44.72;;;;;;;;;;5032572;28;20069;-53
2022/01/11 02:50:58;;;;;;;123.97;43.17;;;;;;;;;;5032813;28;20496;-51
2022/01/11 02:53:24;;;;;;;122.63;43.15;;;;;;;;;;5027408;28;20036;-51
2022/01/11 02:55:51;;;;;;;128.48;43.55;;;;;;;;;;5028267;28;20037;-56
2022/01/11 02:58:16;;;;;;;121.40;41.40;;;;;;;;;;5033758;28;20108;-53
2022/01/11 03:00:43;;;;;;;130.00;42.00;;;;;;;;;;5027377;28;20030;-54
2022/01/11 03:03:22;;;;;;;126.78;41.28;;;;;;;;;;5033391;28;20121;-56
2022/01/11 03:05:49;;;;;;;116.35;39.35;;;;;;;;;;5027963;28;20033;-52
2022/01/11 03:08:16;;;;;;;114.07;38.28;;;;;;;;;;5015856;28;20026;-56
2022/01/11 03:10:43;;;;;;;119.95;38.55;;;;;;;;;;5026603;28;20022;-54
2022/01/11 03:13:10;;;;;;;112.18;40.00;;;;;;;;;;5033787;28;20029;-55
2022/01/11 03:15:36;;;;;;;120.60;36.70;;;;;;;;;;5022410;28;20033;-56
2022/01/11 03:18:04;;;;;;;126.20;40.10;;;;;;;;;;5028752;28;20030;-52
2022/01/11 03:20:30;;;;;;;113.88;37.30;;;;;;;;;;5036305;28;20040;-56
2022/01/11 03:22:56;;;;;;;119.15;38.17;;;;;;;;;;5032521;28;20104;-54
2022/01/11 03:25:23;;;;;;;108.30;35.30;;;;;;;;;;5027174;28;20366;-55
2022/01/11 03:27:49;;;;;;;116.65;35.28;;;;;;;;;;5031696;28;20030;-53
2022/01/11 03:30:16;;;;;;;112.63;37.08;;;;;;;;;;5033564;28;20025;-54
2022/01/11 03:32:42;;;;;;;111.82;37.45;;;;;;;;;;5030631;28;20029;-52
2022/01/11 03:35:08;;;;;;;124.88;37.63;;;;;;;;;;5032735;28;20164;-55
2022/01/11 03:37:34;;;;;;;114.70;35.22;;;;;;;;;;5024399;28;20117;-55
2022/01/11 03:40:01;;;;;;;110.25;34.28;;;;;;;;;;5033361;28;20497;-55
2022/01/11 03:42:27;;;;;;;127.22;34.35;;;;;;;;;;5020632;28;20104;-55
2022/01/11 03:44:54;;;;;;;107.47;34.13;;;;;;;;;;5032238;28;20051;-52
2022/01/11 03:47:20;;;;;;;112.93;34.17;;;;;;;;;;5029632;28;20037;-56
2022/01/11 03:49:46;;;;;;;109.40;33.38;;;;;;;;;;5032824;28;20036;-52
2022/01/11 03:52:12;;;;;;;103.90;34.25;;;;;;;;;;5032590;28;20089;-52
2022/01/11 03:57:20;;;;;;;113.03;34.25;;;;;;;;;;5030949;28;20683;-53
2022/01/11 03:59:46;;;;;;;106.28;32.15;;;;;;;;;;5032003;28;20033;-56
2022/01/11 04:02:12;;;;;;;92.00;30.13;;;;;;;;;;5030705;28;20096;-54
2022/01/11 04:04:38;;;;;;;94.57;31.38;;;;;;;;;;5033077;28;20029;-54
2022/01/11 04:07:04;;;;;;;102.85;31.70;;;;;;;;;;5032011;28;20128;-54
2022/01/11 04:09:30;;;;;;;94.88;29.55;;;;;;;;;;5020108;28;20030;-56
2022/01/11 04:11:56;;;;;;;89.57;28.98;;;;;;;;;;5026983;28;20039;-55
2022/01/11 04:14:25;;;;;;;93.40;30.42;;;;;;;;;;5032119;28;20044;-54
2022/01/11 04:16:51;;;;;;;94.60;30.50;;;;;;;;;;5031844;28;20048;-55
2022/01/11 04:19:17;;;;;;;98.82;31.17;;;;;;;;;;5019488;28;20149;-54
2022/01/11 04:21:43;;;;;;;97.40;30.55;;;;;;;;;;5039199;28;20805;-56
2022/01/11 04:24:11;;;;;;;94.03;29.10;;;;;;;;;;5029047;28;20036;-55
2022/01/11 04:26:37;;;;;;;103.10;30.50;;;;;;;;;;5032166;28;20196;-56
2022/01/11 04:29:03;;;;;;;95.10;30.85;;;;;;;;;;5026070;28;20036;-55
2022/01/11 04:31:29;;;;;;;101.30;31.90;;;;;;;;;;5027452;28;20370;-51
2022/01/11 04:33:55;;;;;;;96.18;30.58;;;;;;;;;;5025319;28;20034;-52
2022/01/11 04:36:21;;;;;;;96.45;29.35;;;;;;;;;;5030186;28;20041;-54
2022/01/11 04:38:47;;;;;;;90.28;29.50;;;;;;;;;;5031677;28;20084;-55
2022/01/11 04:41:14;;;;;;;95.50;29.08;;;;;;;;;;5022643;28;20117;-55
2022/01/11 04:43:40;;;;;;;81.68;26.88;;;;;;;;;;5028987;28;20108;-56
2022/01/11 04:46:06;;;;;;;93.07;28.92;;;;;;;;;;5031729;28;20026;-57
2022/01/11 04:48:32;;;;;;;91.22;26.65;;;;;;;;;;5030222;28;20041;-51
2022/01/11 04:51:02;;;;;;;103.05;29.90;;;;;;;;;;5031232;28;20503;-56
2022/01/11 04:53:28;;;;;;;94.80;27.55;;;;;;;;;;5022502;28;20125;-55
2022/01/11 04:55:55;;;;;;;98.70;29.02;;;;;;;;;;5028989;28;20033;-55
2022/01/11 04:58:21;;;;;;;97.57;29.75;;;;;;;;;;5027947;28;20070;-55
2022/01/11 05:00:47;;;;;;;101.57;30.23;;;;;;;;;;5028901;28;20116;-56
2022/01/11 05:03:13;;;;;;;103.45;30.67;;;;;;;;;;5029452;28;20164;-52
2022/01/11 05:05:39;;;;;;;104.97;30.27;;;;;;;;;;5031965;28;20508;-54
2022/01/11 05:08:05;;;;;;;98.40;30.23;;;;;;;;;;5025852;28;20421;-55
2022/01/11 05:10:31;;;;;;;109.15;31.30;;;;;;;;;;5029127;28;21603;-53
2022/01/11 05:12:58;;;;;;;116.57;34.08;;;;;;;;;;5020300;28;20034;-53
2022/01/11 05:15:25;;;;;;;108.90;31.77;;;;;;;;;;5024633;28;20553;-56
2022/01/11 05:17:51;;;;;;;103.28;31.10;;;;;;;;;;5021196;28;20033;-52
2022/01/11 05:20:17;;;;;;;110.15;32.53;;;;;;;;;;5031980;28;20025;-54
2022/01/11 05:22:45;;;;;;;108.85;37.60;;;;;;;;;;5029218;28;20525;-55
2022/01/11 05:25:13;;;;;;;110.90;32.42;;;;;;;;;;5020905;28;20053;-55
2022/01/11 05:27:39;;;;;;;106.65;33.30;;;;;;;;;;5030029;28;20022;-56
2022/01/11 05:30:06;;;;;;;98.03;29.92;;;;;;;;;;5033949;28;20048;-52
2022/01/11 05:32:32;;;;;;;117.57;33.33;;;;;;;;;;5033579;28;20033;-50
2022/01/11 05:34:58;;;;;;;108.35;34.50;;;;;;;;;;5031293;28;20562;-50
2022/01/11 05:37:24;;;;;;;104.22;32.05;;;;;;;;;;5020304;28;20110;-55
2022/01/11 05:39:53;;;;;;;117.82;40.67;;;;;;;;;;5033628;28;20095;-54
2022/01/11 05:42:19;;;;;;;112.43;35.38;;;;;;;;;;5035237;28;20072;-50
2022/01/11 05:44:45;;;;;;;91.72;28.55;;;;;;;;;;5031632;28;20069;-53
2022/01/11 05:47:11;;;;;;;99.82;32.10;;;;;;;;;;5026928;28;20025;-52
2022/01/11 05:49:37;;;;;;;129.68;42.58;;;;;;;;;;5031082;28;20079;-54
2022/01/11 05:52:03;;;;;;;101.85;33.75;;;;;;;;;;5043637;28;20758;-52
2022/01/11 05:54:29;;;;;;;86.25;27.42;;;;;;;;;;5030276;28;20109;-51
2022/01/11 05:56:55;;;;;;;111.72;38.28;;;;;;;;;;5031847;28;20030;-51
2022/01/11 05:59:21;;;;;;;111.68;45.30;;;;;;;;;;5031183;28;20112;-53
2022/01/11 06:01:47;;;;;;;87.57;27.38;;;;;;;;;;5033484;28;20061;-53
2022/01/11 06:04:13;;;;;;;76.68;25.33;;;;;;;;;;5032811;28;20029;-57
2022/01/11 06:06:39;;;;;;;91.95;24.85;;;;;;;;;;5023983;28;20357;-54
2022/01/11 06:09:05;;;;;;;79.80;25.15;;;;;;;;;;5027119;28;20109;-52
2022/01/11 06:11:31;;;;;;;82.45;25.08;;;;;;;;;;5033048;28;20112;-53
2022/01/11 06:13:57;;;;;;;78.85;24.20;;;;;;;;;;5034473;28;20385;-55
2022/01/11 06:16:23;;;;;;;82.60;26.83;;;;;;;;;;5027528;28;20112;-54
2022/01/11 06:18:50;;;;;;;101.30;32.42;;;;;;;;;;5030834;28;20430;-56
2022/01/11 06:21:16;;;;;;;79.38;25.65;;;;;;;;;;5034318;28;20022;-55
2022/01/11 06:23:42;;;;;;;85.60;26.65;;;;;;;;;;5032612;28;20025;-56
2022/01/11 06:26:08;;;;;;;77.63;24.45;;;;;;;;;;5031371;28;20420;-52
2022/01/11 06:28:34;;;;;;;76.10;24.67;;;;;;;;;;5033733;28;20041;-55
2022/01/11 06:31:00;;;;;;;74.78;25.55;;;;;;;;;;5032589;28;20208;-54
2022/01/11 06:33:26;;;;;;;79.18;26.08;;;;;;;;;;5033177;28;20662;-53
2022/01/11 06:35:52;;;;;;;85.40;24.90;;;;;;;;;;5031478;28;20712;-52
2022/01/11 06:38:18;;;;;;;79.15;24.02;;;;;;;;;;5031485;28;20033;-52
2022/01/11 06:40:44;;;;;;;66.72;23.35;;;;;;;;;;5029626;28;20029;-53
2022/01/11 06:43:10;;;;;;;87.40;26.52;;;;;;;;;;5029052;28;20029;-52
2022/01/11 06:45:36;;;;;;;71.20;23.30;;;;;;;;;;5029205;28;20075;-53
2022/01/11 06:48:03;;;;;;;70.05;21.65;;;;;;;;;;5026422;28;20034;-54
2022/01/11 06:50:28;;;;;;;74.57;23.85;;;;;;;;;;5028110;28;20032;-55
2022/01/11 06:52:54;;;;;;;64.72;22.73;;;;;;;;;;5029294;28;20017;-52
2022/01/11 06:55:21;;;;;;;78.97;25.27;;;;;;;;;;5030141;28;20064;-53
2022/01/11 06:57:47;;;;;;;68.68;22.88;;;;;;;;;;5028753;28;20044;-55
2022/01/11 07:00:13;;;;;;;71.68;23.73;;;;;;;;;;5027684;28;20021;-54
2022/01/11 07:02:39;;;;;;;70.70;23.90;;;;;;;;;;5031616;28;20477;-56
2022/01/11 07:05:06;;;;;;;69.95;23.98;;;;;;;;;;5022068;28;20044;-52
2022/01/11 07:07:32;;;;;;;65.68;23.40;;;;;;;;;;5026364;28;20022;-52
2022/01/11 07:09:58;;;;;;;73.32;24.45;;;;;;;;;;5020927;28;20082;-53
2022/01/11 07:12:24;;;;;;;60.00;22.63;;;;;;;;;;5035443;28;20037;-53
2022/01/11 07:14:50;;;;;;;69.93;23.63;;;;;;;;;;5037225;28;20081;-54
2022/01/11 07:17:16;;;;;;;66.07;23.00;;;;;;;;;;5032135;28;20065;-55
2022/01/11 07:19:42;;;;;;;72.80;23.17;;;;;;;;;;5029924;28;20104;-53
2022/01/11 07:22:09;;;;;;;68.75;22.98;;;;;;;;;;5022480;28;20504;-50
2022/01/11 07:24:35;;;;;;;59.05;20.95;;;;;;;;;;5031938;28;20025;-52
2022/01/11 07:27:01;;;;;;;73.88;24.50;;;;;;;;;;5033895;28;20071;-56
2022/01/11 07:29:27;;;;;;;70.00;22.73;;;;;;;;;;5032980;28;20033;-53
2022/01/11 07:31:53;;;;;;;71.43;24.00;;;;;;;;;;5032598;28;20083;-55
2022/01/11 07:34:19;;;;;;;64.30;22.42;;;;;;;;;;5031591;28;20052;-51
2022/01/11 07:36:45;;;;;;;59.88;21.08;;;;;;;;;;5027778;28;20113;-54
2022/01/11 07:39:15;;;;;;;65.68;23.33;;;;;;;;;;5030866;28;20084;-54
2022/01/11 07:41:42;;;;;;;60.92;21.55;;;;;;;;;;5026505;28;20038;-52
2022/01/11 07:44:08;;;;;;;62.00;22.40;;;;;;;;;;5025898;28;20104;-51
2022/01/11 07:46:34;;;;;;;62.78;22.10;;;;;;;;;;5021553;28;20026;-55
2022/01/11 07:49:02;;;;;;;73.95;23.00;;;;;;;;;;5018681;28;20117;-51
2022/01/11 07:51:28;;;;;;;66.10;20.95;;;;;;;;;;5028410;28;20044;-51
2022/01/11 07:53:54;;;;;;;61.15;20.05;;;;;;;;;;5018231;28;20191;-52
2022/01/11 07:56:21;;;;;;;72.47;20.55;;;;;;;;;;5026470;28;20077;-54
2022/01/11 07:58:47;;;;;;;58.60;19.83;;;;;;;;;;5022479;28;20065;-55
2022/01/11 08:01:13;;;;;;;59.88;22.00;;;;;;;;;;5019075;28;20054;-54
2022/01/11 08:03:39;;;;;;;55.60;18.90;;;;;;;;;;5029935;28;20029;-54
2022/01/11 08:06:05;;;;;;;59.13;20.58;;;;;;;;;;5023404;28;20026;-52
2022/01/11 08:08:31;;;;;;;49.88;18.40;;;;;;;;;;5025944;28;20388;-52
2022/01/11 08:10:58;;;;;;;59.20;18.90;;;;;;;;;;5021166;28;20041;-53
2022/01/11 08:13:24;;;;;;;58.50;20.33;;;;;;;;;;5024083;28;20040;-51
2022/01/11 08:15:51;;;;;;;56.67;20.83;;;;;;;;;;5028110;28;20021;-53
2022/01/11 08:18:17;;;;;;;58.55;19.50;;;;;;;;;;5017597;28;20026;-55
2022/01/11 08:20:44;;;;;;;58.17;20.05;;;;;;;;;;5025876;28;20026;-52
2022/01/11 08:23:11;;;;;;;56.97;19.60;;;;;;;;;;5025936;28;20144;-53
2022/01/11 08:25:37;;;;;;;60.30;21.02;;;;;;;;;;5028731;28;20076;-54
2022/01/11 08:28:03;;;;;;;62.10;19.98;;;;;;;;;;5029336;28;20108;-53
2022/01/11 08:30:29;;;;;;;65.60;19.58;;;;;;;;;;5023481;28;20030;-50
2022/01/11 08:32:55;;;;;;;54.30;19.77;;;;;;;;;;5020599;28;20136;-52
2022/01/11 08:35:21;;;;;;;54.85;19.20;;;;;;;;;;5021132;28;20060;-51
2022/01/11 08:37:47;;;;;;;54.20;19.95;;;;;;;;;;5024152;28;20079;-53
2022/01/11 08:40:15;;;;;;;55.58;18.83;;;;;;;;;;5029969;28;20049;-53
2022/01/11 08:42:41;;;;;;;60.60;20.25;;;;;;;;;;5014292;28;20037;-53
2022/01/11 08:45:07;;;;;;;53.58;19.35;;;;;;;;;;5022108;28;20013;-55
2022/01/11 08:47:34;;;;;;;57.63;19.23;;;;;;;;;;5024658;28;20029;-52
2022/01/11 08:50:02;;;;;;;57.90;20.45;;;;;;;;;;5032181;28;20034;-55
2022/01/11 08:52:28;;;;;;;58.10;19.48;;;;;;;;;;5032093;28;20388;-53
2022/01/11 08:54:55;;;;;;;48.83;17.95;;;;;;;;;;5032043;28;20023;-53
2022/01/11 08:57:21;;;;;;;51.20;19.73;;;;;;;;;;5030640;28;20099;-53
2022/01/11 08:59:47;;;;;;;52.22;18.48;;;;;;;;;;5023173;28;20033;-51
2022/01/11 09:02:13;;;;;;;57.60;18.90;;;;;;;;;;5031502;28;20022;-52
2022/01/11 09:04:40;;;;;;;54.95;19.08;;;;;;;;;;5025643;28;20025;-54
2022/01/11 09:07:06;;;;;;;55.88;19.27;;;;;;;;;;5027297;28;20084;-53
2022/01/11 09:09:32;;;;;;;51.17;17.40;;;;;;;;;;5020865;28;20108;-54
2022/01/11 09:11:59;;;;;;;50.88;19.25;;;;;;;;;;5024277;28;20026;-55
2022/01/11 09:14:25;;;;;;;49.25;17.45;;;;;;;;;;5022925;28;20547;-52
2022/01/11 09:16:51;;;;;;;56.03;19.98;;;;;;;;;;5027377;28;20034;-49
2022/01/11 09:19:18;;;;;;;47.90;17.42;;;;;;;;;;5023786;28;20038;-51
2022/01/11 09:21:44;;;;;;;55.03;17.98;;;;;;;;;;5028121;28;20029;-55
2022/01/11 09:24:12;;;;;;;51.42;18.65;;;;;;;;;;5027362;28;20038;-56
2022/01/11 09:26:38;;;;;;;46.88;16.35;;;;;;;;;;5025342;28;20036;-54
2022/01/11 09:29:04;;;;;;;47.85;16.58;;;;;;;;;;5042197;28;20037;-56
2022/01/11 09:31:30;;;;;;;45.83;17.35;;;;;;;;;;5029416;28;20108;-55
2022/01/11 09:33:56;;;;;;;47.92;17.95;;;;;;;;;;5019348;28;20046;-53
2022/01/11 09:36:22;;;;;;;46.35;17.40;;;;;;;;;;5029883;28;20088;-56
2022/01/11 09:38:48;;;;;;;45.15;17.02;;;;;;;;;;5028689;28;20037;-53
2022/01/11 09:41:14;;;;;;;52.30;18.10;;;;;;;;;;5031410;28;20026;-51
2022/01/11 09:43:41;;;;;;;51.63;19.23;;;;;;;;;;5026548;28;20421;-54
2022/01/11 09:46:07;;;;;;;44.15;16.85;;;;;;;;;;5030360;28;20047;-56
2022/01/11 09:48:34;;;;;;;51.38;17.48;;;;;;;;;;5022273;28;20026;-56
2022/01/11 09:51:00;;;;;;;52.85;18.38;;;;;;;;;;5028584;28;20033;-52
2022/01/11 09:53:27;;;;;;;56.28;18.17;;;;;;;;;;5028623;28;20029;-57
2022/01/11 09:55:53;;;;;;;48.63;18.45;;;;;;;;;;5021060;28;20014;-56
2022/01/11 09:58:19;;;;;;;48.40;18.45;;;;;;;;;;5021565;28;20037;-54
2022/01/11 10:00:45;;;;;;;46.63;17.08;;;;;;;;;;5031152;28;20485;-55
2022/01/11 10:03:11;;;;;;;48.72;17.55;;;;;;;;;;5021103;28;20608;-55
2022/01/11 10:05:38;;;;;;;48.45;18.42;;;;;;;;;;5017440;28;20018;-56
2022/01/11 10:08:24;;;;;;;50.85;18.65;;;;;;;;;;5027733;28;20050;-55
2022/01/11 10:10:52;;;;;;;45.22;16.27;;;;;;;;;;5021088;28;20041;-53
2022/01/11 10:13:33;;;;;;;44.55;16.95;;;;;;;;;;5039212;28;20059;-51
2022/01/11 10:16:17;;;;;;;45.95;16.63;;;;;;;;;;5031306;28;20029;-56
2022/01/11 10:18:43;;;;;;;44.33;16.77;;;;;;;;;;5020654;28;20022;-54
2022/01/11 10:21:28;;;;;;;49.60;17.98;;;;;;;;;;5034262;28;20036;-50
2022/01/11 10:23:54;;;;;;;52.60;18.08;;;;;;;;;;5032344;28;20022;-54
2022/01/11 10:26:39;;;;;;;47.90;17.17;;;;;;;;;;5028607;28;20037;-54
2022/01/11 10:29:23;;;;;;;49.97;17.35;;;;;;;;;;5030026;28;20456;-55
2022/01/11 10:31:48;;;;;;;44.35;16.10;;;;;;;;;;5025978;28;20033;-51
2022/01/11 10:34:14;;;;;;;48.17;16.65;;;;;;;;;;5033327;28;20046;-52
2022/01/11 10:36:42;;;;;;;47.40;16.88;;;;;;;;;;5024415;28;20536;-54
2022/01/11 10:39:29;;;;;;;40.28;15.05;;;;;;;;;;5029561;28;20109;-54
2022/01/11 10:41:55;;;;;;;47.45;18.02;;;;;;;;;;5019703;28;20474;-53
2022/01/11 10:44:40;;;;;;;44.83;17.30;;;;;;;;;;5029734;28;20029;-53
2022/01/11 10:47:06;;;;;;;42.13;16.60;;;;;;;;;;5022490;28;20029;-54
2022/01/11 10:49:32;;;;;;;45.83;16.45;;;;;;;;;;5024978;28;20040;-56
2022/01/11 10:52:17;;;;;;;58.78;21.63;;;;;;;;;;5020144;28;20418;-55
2022/01/11 10:54:43;;;;;;;51.15;16.52;;;;;;;;;;5033976;28;20033;-53
2022/01/11 10:57:20;;;;;;;39.65;14.85;;;;;;;;;;5031446;28;20120;-54
2022/01/11 11:00:04;;;;;;;46.72;18.58;;;;;;;;;;5022576;28;20033;-55
2022/01/11 11:02:30;;;;;;;39.15;15.57;;;;;;;;;;5030346;28;20556;-52
2022/01/11 11:04:58;;;;;;;37.17;14.18;;;;;;;;;;5023550;28;20081;-52
2022/01/11 11:07:26;;;;;;;44.40;17.00;;;;;;;;;;5031029;28;20021;-52
2022/01/11 11:09:52;;;;;;;34.00;14.20;;;;;;;;;;5031424;28;20021;-54
2022/01/11 11:12:22;;;;;;;37.28;15.15;;;;;;;;;;5037988;28;20030;-53
2022/01/11 11:14:53;;;;;;;36.60;14.82;;;;;;;;;;5032077;28;20132;-55
2022/01/11 11:17:29;;;;;;;35.10;13.23;;;;;;;;;;5030902;28;20053;-54
2022/01/11 11:20:03;;;;;;;32.63;13.05;;;;;;;;;;5026796;28;20067;-51
2022/01/11 11:22:29;;;;;;;37.75;14.50;;;;;;;;;;5037842;28;20021;-52
2022/01/11 11:24:56;;;;;;;39.70;14.65;;;;;;;;;;5032339;28;20014;-55
2022/01/11 11:27:23;;;;;;;36.15;15.30;;;;;;;;;;5029168;28;20033;-52
2022/01/11 11:29:49;;;;;;;39.00;13.85;;;;;;;;;;5029046;28;20440;-52
2022/01/11 11:32:17;;;;;;;38.63;16.83;;;;;;;;;;5023604;28;20099;-51
2022/01/11 11:34:45;;;;;;;39.88;14.27;;;;;;;;;;5033368;28;20095;-54
2022/01/11 11:37:14;;;;;;;40.20;15.95;;;;;;;;;;5031634;28;20037;-50
2022/01/11 11:39:41;;;;;;;39.42;14.48;;;;;;;;;;5033287;28;20025;-52
2022/01/11 11:42:09;;;;;;;36.38;14.70;;;;;;;;;;5030144;28;20026;-55
2022/01/11 11:44:37;;;;;;;40.55;14.70;;;;;;;;;;5027648;28;20053;-55
2022/01/11 11:47:05;;;;;;;39.35;15.73;;;;;;;;;;5028942;28;20479;-51
2022/01/11 11:49:43;;;;;;;43.20;16.58;;;;;;;;;;5036425;28;20037;-51
2022/01/11 11:52:18;;;;;;;40.83;15.05;;;;;;;;;;5031907;28;20393;-54
2022/01/11 11:54:53;;;;;;;38.03;15.30;;;;;;;;;;5027423;28;20032;-53
2022/01/11 11:57:20;;;;;;;48.70;19.83;;;;;;;;;;5020910;28;20021;-51
2022/01/11 11:59:57;;;;;;;43.88;16.70;;;;;;;;;;5033231;28;20029;-51
2022/01/11 12:02:30;;;;;;;41.75;15.23;;;;;;;;;;5032381;28;20022;-52
2022/01/11 12:04:56;;;;;;;;;;;;;;;;;;5027180;28;20085;-52
2022/01/11 12:07:44;;;;;;;37.85;13.25;;;;;;;;;;5024047;28;19925;-53
2022/01/11 12:10:15;;;;;;;32.10;15.30;;;;;;;;;;5029900;28;20139;-53
2022/01/11 12:12:41;;;;;;;36.50;14.20;;;;;;;;;;5040788;28;20112;-56
2022/01/11 12:15:22;;;;;;;42.28;15.48;;;;;;;;;;5031199;28;20033;-55
2022/01/11 12:17:49;;;;;;;36.50;13.60;;;;;;;;;;5022997;28;20025;-56
2022/01/11 12:20:41;;;;;;;32.38;13.75;;;;;;;;;;5031476;28;20121;-55
2022/01/11 12:23:07;;;;;;;39.97;15.98;;;;;;;;;;5019203;28;20037;-53
2022/01/11 12:25:38;;;;;;;36.97;13.18;;;;;;;;;;5025117;28;20131;-55
2022/01/11 12:28:06;;;;;;;33.90;13.50;;;;;;;;;;5027642;28;20037;-55
2022/01/11 12:30:33;;;;;;;40.63;16.23;;;;;;;;;;5032616;28;20339;-55
2022/01/11 12:33:10;;;;;;;42.28;16.17;;;;;;;;;;5031244;28;20112;-56
2022/01/11 12:35:55;;;;;;;40.92;15.98;;;;;;;;;;5030265;28;20092;-52
2022/01/11 12:38:21;;;;;;;31.73;12.73;;;;;;;;;;5027612;28;20478;-54
2022/01/11 12:40:48;;;;;;;34.08;13.32;;;;;;;;;;5029930;28;20035;-54
2022/01/11 12:43:21;;;;;;;33.25;13.48;;;;;;;;;;5031765;28;20031;-54
2022/01/11 12:45:58;;;;;;;39.45;14.73;;;;;;;;;;5028663;28;20552;-53
2022/01/11 12:48:44;;;;;;;37.92;14.18;;;;;;;;;;5027371;28;20033;-55
2022/01/11 12:51:10;;;;;;;42.40;14.80;;;;;;;;;;5022520;28;20033;-53
2022/01/11 12:53:36;;;;;;;38.00;14.40;;;;;;;;;;5027913;28;20116;-53
2022/01/11 12:56:03;;;;;;;39.42;15.48;;;;;;;;;;5023086;28;20037;-54
2022/01/11 12:58:29;;;;;;;40.90;16.40;;;;;;;;;;5024614;28;20120;-52
2022/01/11 13:00:56;;;;;;;39.13;15.35;;;;;;;;;;5028011;28;20461;-55
2022/01/11 13:03:22;;;;;;;40.72;15.93;;;;;;;;;;5021027;28;20038;-50
2022/01/11 13:05:51;;;;;;;42.78;16.02;;;;;;;;;;5025314;28;20457;-55
2022/01/11 13:08:29;;;;;;;39.17;15.13;;;;;;;;;;5025639;28;20025;-54
2022/01/11 13:10:56;;;;;;;35.80;15.07;;;;;;;;;;5021886;28;20119;-51
2022/01/11 13:13:26;;;;;;;42.72;15.77;;;;;;;;;;5032394;28;20500;-51
2022/01/11 13:15:52;;;;;;;41.13;14.63;;;;;;;;;;5022299;28;20032;-51
2022/01/11 13:18:19;;;;;;;41.72;14.98;;;;;;;;;;5029227;28;20116;-55
2022/01/11 13:20:46;;;;;;;38.03;14.98;;;;;;;;;;5026146;28;20389;-51
2022/01/11 13:23:18;;;;;;;37.13;14.32;;;;;;;;;;5027544;28;20065;-50
2022/01/11 13:25:48;;;;;;;41.75;13.93;;;;;;;;;;5016505;28;20487;-53
2022/01/11 13:28:15;;;;;;;35.10;13.05;;;;;;;;;;5023085;28;20029;-56
2022/01/11 13:30:49;;;;;;;36.30;13.70;;;;;;;;;;5031594;28;20492;-53
2022/01/11 13:33:31;;;;;;;32.50;13.57;;;;;;;;;;5029302;28;20045;-55
2022/01/11 13:36:01;;;;;;;55.20;18.10;;;;;;;;;;5024235;28;20037;-55
2022/01/11 13:38:34;;;;;;;36.67;14.98;;;;;;;;;;5012275;28;20036;-52
2022/01/11 13:41:00;;;;;;;40.28;14.60;;;;;;;;;;5017239;28;20073;-54
2022/01/11 13:43:33;;;;;;;40.67;14.23;;;;;;;;;;5016975;28;20040;-50
2022/01/11 13:45:59;;;;;;;44.83;16.35;;;;;;;;;;5019417;28;20040;-54
2022/01/11 13:48:25;;;;;;;37.70;15.48;;;;;;;;;;5022093;28;20030;-51
2022/01/11 13:50:58;;;;;;;39.45;16.45;;;;;;;;;;5016989;28;20109;-55
2022/01/11 13:53:24;;;;;;;;;;;;;;;;;;5026379;28;20057;-55
2022/01/11 13:55:51;;;;;;;43.67;14.63;;;;;;;;;;5033438;28;19990;-56
2022/01/11 13:58:17;;;;;;;38.05;15.40;;;;;;;;;;5022861;28;20378;-56
2022/01/11 14:00:43;;;;;;;38.65;14.38;;;;;;;;;;5019395;28;20036;-54
2022/01/11 14:03:20;;;;;;;37.10;14.10;;;;;;;;;;5030024;28;20120;-56
2022/01/11 14:05:46;;;;;;;44.45;14.65;;;;;;;;;;5018069;28;20080;-54
2022/01/11 14:08:12;;;;;;;39.45;16.17;;;;;;;;;;5023832;28;20033;-53
2022/01/11 14:10:41;;;;;;;42.88;15.52;;;;;;;;;;5022556;28;20103;-55
2022/01/11 14:13:09;;;;;;;41.47;15.52;;;;;;;;;;5038481;28;20116;-53
2022/01/11 14:15:35;;;;;;;37.05;14.52;;;;;;;;;;5016858;28;20057;-52
2022/01/11 14:18:02;;;;;;;63.58;23.70;;;;;;;;;;5027003;28;20120;-55
2022/01/11 14:20:29;;;;;;;48.78;20.40;;;;;;;;;;5026572;28;20152;-54
2022/01/11 14:22:56;;;;;;;44.45;15.88;;;;;;;;;;5036963;28;20045;-53
2022/01/11 14:25:24;;;;;;;40.08;14.88;;;;;;;;;;5029429;28;20018;-56